sensor_id;sensor_type;location;lat;lon;timestamp;P1;durP1;ratioP1;P2;durP2;ratioP2
39140;SDS011;24875;48.436;10.298;2024-01-11T00:02:25;37.03;;;12.03;;
39140;SDS011;24875;48.436;10.298;2024-01-11T00:04:51;37.70;;;11.70;;
39140;SDS011;24875;48.436;10.298;2024-01-11T00:07:18;41.40;;;13.20;;
39140;SDS011;24875;48.436;10.298;2024-01-11T00:09:44;40.73;;;12.90;;
39140;SDS011;24875;48.436;10.298;2024-01-11T00:12:11;40.87;;;11.97;;
39140;SDS011;24875;48.436;10.298;2024-01-11T00:14:38;43.37;;;14.30;;
39140;SDS011;24875;48.436;10.298;2024-01-11T00:17:05;39.67;;;12.33;;
39140;SDS011;24875;48.436;10.298;2024-01-11T00:19:33;41.73;;;12.43;;
39140;SDS011;24875;48.436;10.298;2024-01-11T00:21:59;46.30;;;14.67;;
39140;SDS011;24875;48.436;10.298;2024-01-11T00:24:26;55.13;;;14.87;;
39140;SDS011;24875;48.436;10.298;2024-01-11T00:26:52;43.70;;;14.40;;
39140;SDS011;24875;48.436;10.298;2024-01-11T00:29:19;40.53;;;13.40;;
39140;SDS011;24875;48.436;10.298;2024-01-11T00:31:45;43.60;;;14.73;;
39140;SDS011;24875;48.436;10.298;2024-01-11T00:34:12;51.50;;;14.70;;
39140;SDS011;24875;48.436;10.298;2024-01-11T00:36:40;53.27;;;14.43;;
39140;SDS011;24875;48.436;10.298;2024-01-11T00:39:05;45.40;;;15.23;;
39140;SDS011;24875;48.436;10.298;2024-01-11T00:41:32;46.10;;;14.37;;
39140;SDS011;24875;48.436;10.298;2024-01-11T00:43:58;41.40;;;12.60;;
39140;SDS011;24875;48.436;10.298;2024-01-11T00:46:25;44.27;;;14.27;;
39140;SDS011;24875;48.436;10.298;2024-01-11T00:48:51;51.73;;;15.63;;
39140;SDS011;24875;48.436;10.298;2024-01-11T00:51:18;45.93;;;15.80;;
39140;SDS011;24875;48.436;10.298;2024-01-11T00:53:45;47.07;;;14.13;;
39140;SDS011;24875;48.436;10.298;2024-01-11T00:56:15;48.07;;;13.63;;
39140;SDS011;24875;48.436;10.298;2024-01-11T00:58:42;40.50;;;13.77;;
39140;SDS011;24875;48.436;10.298;2024-01-11T01:01:09;57.80;;;16.87;;
39140;SDS011;24875;48.436;10.298;2024-01-11T01:03:36;48.53;;;14.37;;
39140;SDS011;24875;48.436;10.298;2024-01-11T01:06:02;45.80;;;15.40;;
39140;SDS011;24875;48.436;10.298;2024-01-11T01:08:29;50.87;;;14.10;;
39140;SDS011;24875;48.436;10.298;2024-01-11T01:10:57;47.50;;;14.33;;
39140;SDS011;24875;48.436;10.298;2024-01-11T01:13:24;54.53;;;15.23;;
39140;SDS011;24875;48.436;10.298;2024-01-11T01:15:51;46.50;;;13.63;;
39140;SDS011;24875;48.436;10.298;2024-01-11T01:18:17;56.43;;;15.73;;
39140;SDS011;24875;48.436;10.298;2024-01-11T01:20:44;49.83;;;14.23;;
39140;SDS011;24875;48.436;10.298;2024-01-11T01:23:10;44.77;;;13.97;;
39140;SDS011;24875;48.436;10.298;2024-01-11T01:25:37;61.90;;;16.83;;
39140;SDS011;24875;48.436;10.298;2024-01-11T01:28:05;49.53;;;13.27;;
39140;SDS011;24875;48.436;10.298;2024-01-11T01:30:31;55.13;;;16.20;;
39140;SDS011;24875;48.436;10.298;2024-01-11T01:32:58;51.93;;;15.27;;
39140;SDS011;24875;48.436;10.298;2024-01-11T01:35:24;51.53;;;16.33;;
39140;SDS011;24875;48.436;10.298;2024-01-11T01:37:51;51.87;;;15.67;;
39140;SDS011;24875;48.436;10.298;2024-01-11T01:40:17;43.50;;;11.57;;
39140;SDS011;24875;48.436;10.298;2024-01-11T01:42:44;42.53;;;13.47;;
39140;SDS011;24875;48.436;10.298;2024-01-11T01:45:14;50.93;;;14.03;;
39140;SDS011;24875;48.436;10.298;2024-01-11T01:47:42;46.80;;;14.07;;
39140;SDS011;24875;48.436;10.298;2024-01-11T01:50:10;55.13;;;15.37;;
39140;SDS011;24875;48.436;10.298;2024-01-11T01:52:37;49.83;;;16.77;;
39140;SDS011;24875;48.436;10.298;2024-01-11T01:55:08;34.37;;;11.10;;
39140;SDS011;24875;48.436;10.298;2024-01-11T01:57:36;41.97;;;13.40;;
39140;SDS011;24875;48.436;10.298;2024-01-11T02:00:04;45.50;;;14.93;;
39140;SDS011;24875;48.436;10.298;2024-01-11T02:02:33;52.40;;;14.70;;
39140;SDS011;24875;48.436;10.298;2024-01-11T02:05:01;49.43;;;14.80;;
39140;SDS011;24875;48.436;10.298;2024-01-11T02:07:28;44.60;;;14.77;;
39140;SDS011;24875;48.436;10.298;2024-01-11T02:09:54;44.50;;;14.20;;
39140;SDS011;24875;48.436;10.298;2024-01-11T02:12:22;49.47;;;14.80;;
39140;SDS011;24875;48.436;10.298;2024-01-11T02:14:49;49.97;;;14.37;;
39140;SDS011;24875;48.436;10.298;2024-01-11T02:17:16;50.57;;;16.13;;
39140;SDS011;24875;48.436;10.298;2024-01-11T02:19:44;51.87;;;15.10;;
39140;SDS011;24875;48.436;10.298;2024-01-11T02:22:12;55.90;;;15.40;;
39140;SDS011;24875;48.436;10.298;2024-01-11T02:24:48;49.63;;;16.77;;
39140;SDS011;24875;48.436;10.298;2024-01-11T02:27:14;53.47;;;16.37;;
39140;SDS011;24875;48.436;10.298;2024-01-11T02:29:41;49.87;;;15.33;;
39140;SDS011;24875;48.436;10.298;2024-01-11T02:32:08;56.77;;;17.73;;
39140;SDS011;24875;48.436;10.298;2024-01-11T02:34:34;55.93;;;16.70;;
39140;SDS011;24875;48.436;10.298;2024-01-11T02:37:01;52.80;;;15.50;;
39140;SDS011;24875;48.436;10.298;2024-01-11T02:39:28;48.60;;;16.13;;
39140;SDS011;24875;48.436;10.298;2024-01-11T02:41:57;60.27;;;17.17;;
39140;SDS011;24875;48.436;10.298;2024-01-11T02:44:23;54.20;;;15.43;;
39140;SDS011;24875;48.436;10.298;2024-01-11T02:46:50;46.90;;;15.43;;
39140;SDS011;24875;48.436;10.298;2024-01-11T02:49:16;56.37;;;16.23;;
39140;SDS011;24875;48.436;10.298;2024-01-11T02:51:43;59.57;;;16.20;;
39140;SDS011;24875;48.436;10.298;2024-01-11T02:54:10;56.07;;;16.63;;
39140;SDS011;24875;48.436;10.298;2024-01-11T02:56:36;51.17;;;17.20;;
39140;SDS011;24875;48.436;10.298;2024-01-11T02:59:04;59.50;;;18.20;;
39140;SDS011;24875;48.436;10.298;2024-01-11T03:01:31;56.70;;;15.70;;
39140;SDS011;24875;48.436;10.298;2024-01-11T03:03:57;52.80;;;15.57;;
39140;SDS011;24875;48.436;10.298;2024-01-11T03:06:24;56.83;;;16.67;;
39140;SDS011;24875;48.436;10.298;2024-01-11T03:08:50;55.43;;;17.00;;
39140;SDS011;24875;48.436;10.298;2024-01-11T03:11:17;53.33;;;16.50;;
39140;SDS011;24875;48.436;10.298;2024-01-11T03:13:44;55.23;;;16.33;;
39140;SDS011;24875;48.436;10.298;2024-01-11T03:16:11;49.33;;;15.70;;
39140;SDS011;24875;48.436;10.298;2024-01-11T03:18:38;55.07;;;16.20;;
39140;SDS011;24875;48.436;10.298;2024-01-11T03:21:05;46.13;;;14.47;;
39140;SDS011;24875;48.436;10.298;2024-01-11T03:23:31;56.97;;;16.97;;
39140;SDS011;24875;48.436;10.298;2024-01-11T03:25:58;44.80;;;14.37;;
39140;SDS011;24875;48.436;10.298;2024-01-11T03:28:25;52.73;;;15.70;;
39140;SDS011;24875;48.436;10.298;2024-01-11T03:30:52;53.03;;;17.70;;
39140;SDS011;24875;48.436;10.298;2024-01-11T03:33:20;46.63;;;15.30;;
39140;SDS011;24875;48.436;10.298;2024-01-11T03:35:46;49.57;;;14.43;;
39140;SDS011;24875;48.436;10.298;2024-01-11T03:38:13;57.77;;;17.33;;
39140;SDS011;24875;48.436;10.298;2024-01-11T03:40:39;56.43;;;16.13;;
39140;SDS011;24875;48.436;10.298;2024-01-11T03:43:06;51.43;;;17.73;;
39140;SDS011;24875;48.436;10.298;2024-01-11T03:45:32;59.57;;;18.27;;
39140;SDS011;24875;48.436;10.298;2024-01-11T03:47:59;49.83;;;15.70;;
39140;SDS011;24875;48.436;10.298;2024-01-11T03:50:27;48.73;;;14.57;;
39140;SDS011;24875;48.436;10.298;2024-01-11T03:52:54;55.67;;;16.57;;
39140;SDS011;24875;48.436;10.298;2024-01-11T03:55:20;54.97;;;16.67;;
39140;SDS011;24875;48.436;10.298;2024-01-11T03:57:47;49.73;;;16.10;;
39140;SDS011;24875;48.436;10.298;2024-01-11T04:00:13;49.13;;;16.40;;
39140;SDS011;24875;48.436;10.298;2024-01-11T04:02:40;55.50;;;17.67;;
39140;SDS011;24875;48.436;10.298;2024-01-11T04:05:07;58.13;;;17.03;;
39140;SDS011;24875;48.436;10.298;2024-01-11T04:07:35;51.73;;;16.87;;
39140;SDS011;24875;48.436;10.298;2024-01-11T04:10:02;51.87;;;16.10;;
39140;SDS011;24875;48.436;10.298;2024-01-11T04:12:29;46.27;;;16.00;;
39140;SDS011;24875;48.436;10.298;2024-01-11T04:14:55;46.63;;;15.33;;
39140;SDS011;24875;48.436;10.298;2024-01-11T04:17:22;60.57;;;17.10;;
39140;SDS011;24875;48.436;10.298;2024-01-11T04:19:48;63.60;;;19.07;;
39140;SDS011;24875;48.436;10.298;2024-01-11T04:22:15;52.23;;;16.00;;
39140;SDS011;24875;48.436;10.298;2024-01-11T04:24:43;47.43;;;17.20;;
39140;SDS011;24875;48.436;10.298;2024-01-11T04:27:10;53.80;;;18.60;;
39140;SDS011;24875;48.436;10.298;2024-01-11T04:29:36;54.67;;;18.33;;
39140;SDS011;24875;48.436;10.298;2024-01-11T04:32:03;55.87;;;18.17;;
39140;SDS011;24875;48.436;10.298;2024-01-11T04:34:30;45.20;;;14.50;;
39140;SDS011;24875;48.436;10.298;2024-01-11T04:36:57;45.77;;;14.37;;
39140;SDS011;24875;48.436;10.298;2024-01-11T04:39:23;48.83;;;14.93;;
39140;SDS011;24875;48.436;10.298;2024-01-11T04:41:51;48.30;;;16.23;;
39140;SDS011;24875;48.436;10.298;2024-01-11T04:44:18;54.40;;;16.93;;
39140;SDS011;24875;48.436;10.298;2024-01-11T04:46:44;60.37;;;15.10;;
39140;SDS011;24875;48.436;10.298;2024-01-11T04:49:11;56.37;;;17.00;;
39140;SDS011;24875;48.436;10.298;2024-01-11T04:51:37;48.73;;;15.20;;
39140;SDS011;24875;48.436;10.298;2024-01-11T04:54:04;52.17;;;15.97;;
39140;SDS011;24875;48.436;10.298;2024-01-11T04:56:30;64.83;;;17.27;;
39140;SDS011;24875;48.436;10.298;2024-01-11T04:58:58;45.80;;;13.67;;
39140;SDS011;24875;48.436;10.298;2024-01-11T05:01:24;64.87;;;15.97;;
39140;SDS011;24875;48.436;10.298;2024-01-11T05:03:51;51.23;;;14.60;;
39140;SDS011;24875;48.436;10.298;2024-01-11T05:06:18;50.53;;;16.57;;
39140;SDS011;24875;48.436;10.298;2024-01-11T05:08:45;59.53;;;16.50;;
39140;SDS011;24875;48.436;10.298;2024-01-11T05:11:16;48.53;;;13.80;;
39140;SDS011;24875;48.436;10.298;2024-01-11T05:13:43;51.97;;;17.53;;
39140;SDS011;24875;48.436;10.298;2024-01-11T05:16:18;55.40;;;17.60;;
39140;SDS011;24875;48.436;10.298;2024-01-11T05:18:45;59.13;;;18.97;;
39140;SDS011;24875;48.436;10.298;2024-01-11T05:21:12;56.87;;;17.47;;
39140;SDS011;24875;48.436;10.298;2024-01-11T05:23:39;58.20;;;17.13;;
39140;SDS011;24875;48.436;10.298;2024-01-11T05:26:06;55.30;;;17.40;;
39140;SDS011;24875;48.436;10.298;2024-01-11T05:28:33;52.67;;;16.73;;
39140;SDS011;24875;48.436;10.298;2024-01-11T05:30:59;58.20;;;17.30;;
39140;SDS011;24875;48.436;10.298;2024-01-11T05:33:27;59.90;;;18.07;;
39140;SDS011;24875;48.436;10.298;2024-01-11T05:35:53;53.60;;;18.20;;
39140;SDS011;24875;48.436;10.298;2024-01-11T05:38:20;56.43;;;17.70;;
39140;SDS011;24875;48.436;10.298;2024-01-11T05:40:46;57.57;;;17.30;;
39140;SDS011;24875;48.436;10.298;2024-01-11T05:43:13;63.37;;;19.60;;
39140;SDS011;24875;48.436;10.298;2024-01-11T05:45:39;59.70;;;17.47;;
39140;SDS011;24875;48.436;10.298;2024-01-11T05:48:06;55.03;;;16.97;;
39140;SDS011;24875;48.436;10.298;2024-01-11T05:50:34;62.63;;;19.63;;
39140;SDS011;24875;48.436;10.298;2024-01-11T05:53:00;59.80;;;19.73;;
39140;SDS011;24875;48.436;10.298;2024-01-11T05:55:27;53.83;;;17.47;;
39140;SDS011;24875;48.436;10.298;2024-01-11T05:57:54;64.37;;;19.47;;
39140;SDS011;24875;48.436;10.298;2024-01-11T06:00:20;52.97;;;18.53;;
39140;SDS011;24875;48.436;10.298;2024-01-11T06:02:47;52.83;;;16.50;;
39140;SDS011;24875;48.436;10.298;2024-01-11T06:05:14;55.67;;;18.40;;
39140;SDS011;24875;48.436;10.298;2024-01-11T06:07:43;50.30;;;18.10;;
39140;SDS011;24875;48.436;10.298;2024-01-11T06:10:09;56.40;;;18.23;;
39140;SDS011;24875;48.436;10.298;2024-01-11T06:12:36;53.17;;;17.87;;
39140;SDS011;24875;48.436;10.298;2024-01-11T06:15:03;45.27;;;15.90;;
39140;SDS011;24875;48.436;10.298;2024-01-11T06:17:30;58.47;;;16.87;;
39140;SDS011;24875;48.436;10.298;2024-01-11T06:19:56;49.73;;;16.40;;
39140;SDS011;24875;48.436;10.298;2024-01-11T06:22:23;56.03;;;16.30;;
39140;SDS011;24875;48.436;10.298;2024-01-11T06:24:50;56.47;;;18.30;;
39140;SDS011;24875;48.436;10.298;2024-01-11T06:27:17;50.23;;;17.07;;
39140;SDS011;24875;48.436;10.298;2024-01-11T06:29:43;53.27;;;17.67;;
39140;SDS011;24875;48.436;10.298;2024-01-11T06:32:10;56.57;;;19.63;;
39140;SDS011;24875;48.436;10.298;2024-01-11T06:34:36;61.73;;;18.83;;
39140;SDS011;24875;48.436;10.298;2024-01-11T06:37:03;53.97;;;16.67;;
39140;SDS011;24875;48.436;10.298;2024-01-11T06:39:30;58.53;;;17.93;;
39140;SDS011;24875;48.436;10.298;2024-01-11T06:41:58;59.83;;;18.93;;
39140;SDS011;24875;48.436;10.298;2024-01-11T06:44:25;59.47;;;18.57;;
39140;SDS011;24875;48.436;10.298;2024-01-11T06:46:51;63.20;;;19.33;;
39140;SDS011;24875;48.436;10.298;2024-01-11T06:49:18;55.10;;;19.70;;
39140;SDS011;24875;48.436;10.298;2024-01-11T06:51:44;62.70;;;19.40;;
39140;SDS011;24875;48.436;10.298;2024-01-11T06:54:10;58.07;;;17.17;;
39140;SDS011;24875;48.436;10.298;2024-01-11T06:56:37;49.63;;;18.07;;
39140;SDS011;24875;48.436;10.298;2024-01-11T06:59:05;53.17;;;18.63;;
39140;SDS011;24875;48.436;10.298;2024-01-11T07:01:32;54.70;;;18.07;;
39140;SDS011;24875;48.436;10.298;2024-01-11T07:03:58;52.30;;;18.50;;
39140;SDS011;24875;48.436;10.298;2024-01-11T07:06:25;58.13;;;18.87;;
39140;SDS011;24875;48.436;10.298;2024-01-11T07:08:51;59.53;;;20.10;;
39140;SDS011;24875;48.436;10.298;2024-01-11T07:11:18;70.03;;;21.30;;
39140;SDS011;24875;48.436;10.298;2024-01-11T07:13:44;71.70;;;21.87;;
39140;SDS011;24875;48.436;10.298;2024-01-11T07:16:12;58.80;;;18.97;;
39140;SDS011;24875;48.436;10.298;2024-01-11T07:18:39;62.73;;;19.60;;
39140;SDS011;24875;48.436;10.298;2024-01-11T07:21:05;62.83;;;21.07;;
39140;SDS011;24875;48.436;10.298;2024-01-11T07:23:32;68.60;;;21.20;;
39140;SDS011;24875;48.436;10.298;2024-01-11T07:25:58;63.60;;;20.17;;
39140;SDS011;24875;48.436;10.298;2024-01-11T07:28:25;63.87;;;20.60;;
39140;SDS011;24875;48.436;10.298;2024-01-11T07:30:51;63.37;;;18.90;;
39140;SDS011;24875;48.436;10.298;2024-01-11T07:33:20;61.43;;;19.37;;
39140;SDS011;24875;48.436;10.298;2024-01-11T07:35:46;59.10;;;20.13;;
39140;SDS011;24875;48.436;10.298;2024-01-11T07:38:13;55.50;;;19.83;;
39140;SDS011;24875;48.436;10.298;2024-01-11T07:40:40;60.60;;;19.53;;
39140;SDS011;24875;48.436;10.298;2024-01-11T07:43:07;52.60;;;19.07;;
39140;SDS011;24875;48.436;10.298;2024-01-11T07:45:34;63.63;;;21.37;;
39140;SDS011;24875;48.436;10.298;2024-01-11T07:48:00;64.47;;;20.63;;
39140;SDS011;24875;48.436;10.298;2024-01-11T07:50:30;68.37;;;21.07;;
39140;SDS011;24875;48.436;10.298;2024-01-11T07:52:56;61.97;;;21.23;;
39140;SDS011;24875;48.436;10.298;2024-01-11T07:55:23;65.53;;;20.80;;
39140;SDS011;24875;48.436;10.298;2024-01-11T07:57:49;58.07;;;19.33;;
39140;SDS011;24875;48.436;10.298;2024-01-11T08:00:16;66.07;;;20.53;;
39140;SDS011;24875;48.436;10.298;2024-01-11T08:02:42;64.53;;;20.97;;
39140;SDS011;24875;48.436;10.298;2024-01-11T08:05:09;58.53;;;19.67;;
39140;SDS011;24875;48.436;10.298;2024-01-11T08:07:37;57.57;;;19.93;;
39140;SDS011;24875;48.436;10.298;2024-01-11T08:10:04;66.57;;;20.37;;
39140;SDS011;24875;48.436;10.298;2024-01-11T08:12:31;70.90;;;21.63;;
39140;SDS011;24875;48.436;10.298;2024-01-11T08:14:58;57.87;;;20.63;;
39140;SDS011;24875;48.436;10.298;2024-01-11T08:17:24;60.27;;;20.80;;
39140;SDS011;24875;48.436;10.298;2024-01-11T08:19:51;60.37;;;18.30;;
39140;SDS011;24875;48.436;10.298;2024-01-11T08:22:17;61.90;;;19.83;;
39140;SDS011;24875;48.436;10.298;2024-01-11T08:24:46;59.63;;;20.67;;
39140;SDS011;24875;48.436;10.298;2024-01-11T08:27:12;55.33;;;19.37;;
39140;SDS011;24875;48.436;10.298;2024-01-11T08:29:40;61.60;;;20.67;;
39140;SDS011;24875;48.436;10.298;2024-01-11T08:32:07;70.23;;;21.57;;
39140;SDS011;24875;48.436;10.298;2024-01-11T08:34:33;63.63;;;20.33;;
39140;SDS011;24875;48.436;10.298;2024-01-11T08:36:59;61.57;;;20.67;;
39140;SDS011;24875;48.436;10.298;2024-01-11T08:39:26;60.53;;;20.10;;
39140;SDS011;24875;48.436;10.298;2024-01-11T08:41:54;64.40;;;19.20;;
39140;SDS011;24875;48.436;10.298;2024-01-11T08:44:21;58.27;;;19.93;;
39140;SDS011;24875;48.436;10.298;2024-01-11T08:46:48;58.23;;;19.87;;
39140;SDS011;24875;48.436;10.298;2024-01-11T08:49:14;59.17;;;20.10;;
39140;SDS011;24875;48.436;10.298;2024-01-11T08:51:41;57.70;;;19.10;;
39140;SDS011;24875;48.436;10.298;2024-01-11T08:54:07;57.10;;;17.43;;
39140;SDS011;24875;48.436;10.298;2024-01-11T08:56:36;59.90;;;21.43;;
39140;SDS011;24875;48.436;10.298;2024-01-11T08:59:05;55.83;;;19.97;;
39140;SDS011;24875;48.436;10.298;2024-01-11T09:01:33;56.53;;;19.70;;
39140;SDS011;24875;48.436;10.298;2024-01-11T09:04:00;53.97;;;19.17;;
39140;SDS011;24875;48.436;10.298;2024-01-11T09:06:27;56.73;;;19.73;;
39140;SDS011;24875;48.436;10.298;2024-01-11T09:08:52;61.17;;;18.63;;
39140;SDS011;24875;48.436;10.298;2024-01-11T09:11:19;60.30;;;19.03;;
39140;SDS011;24875;48.436;10.298;2024-01-11T09:13:45;60.90;;;19.40;;
39140;SDS011;24875;48.436;10.298;2024-01-11T09:16:15;53.47;;;17.47;;
39140;SDS011;24875;48.436;10.298;2024-01-11T09:18:42;59.20;;;19.60;;
39140;SDS011;24875;48.436;10.298;2024-01-11T09:21:09;53.30;;;18.97;;
39140;SDS011;24875;48.436;10.298;2024-01-11T09:23:35;51.40;;;16.03;;
39140;SDS011;24875;48.436;10.298;2024-01-11T09:26:02;51.73;;;17.37;;
39140;SDS011;24875;48.436;10.298;2024-01-11T09:28:28;52.80;;;17.67;;
39140;SDS011;24875;48.436;10.298;2024-01-11T09:30:55;47.27;;;17.57;;
39140;SDS011;24875;48.436;10.298;2024-01-11T09:33:26;55.83;;;17.03;;
39140;SDS011;24875;48.436;10.298;2024-01-11T09:35:52;54.47;;;15.50;;
39140;SDS011;24875;48.436;10.298;2024-01-11T09:38:19;43.57;;;13.97;;
39140;SDS011;24875;48.436;10.298;2024-01-11T09:40:45;45.03;;;15.30;;
39140;SDS011;24875;48.436;10.298;2024-01-11T09:43:14;47.30;;;16.23;;
39140;SDS011;24875;48.436;10.298;2024-01-11T09:45:41;48.97;;;14.90;;
39140;SDS011;24875;48.436;10.298;2024-01-11T09:48:08;50.60;;;17.33;;
39140;SDS011;24875;48.436;10.298;2024-01-11T09:50:38;53.97;;;16.03;;
39140;SDS011;24875;48.436;10.298;2024-01-11T09:53:05;44.40;;;14.77;;
39140;SDS011;24875;48.436;10.298;2024-01-11T09:55:33;36.80;;;13.93;;
39140;SDS011;24875;48.436;10.298;2024-01-11T09:58:01;46.63;;;16.87;;
39140;SDS011;24875;48.436;10.298;2024-01-11T10:00:29;47.83;;;16.47;;
39140;SDS011;24875;48.436;10.298;2024-01-11T10:02:57;45.03;;;15.10;;
39140;SDS011;24875;48.436;10.298;2024-01-11T10:05:23;42.70;;;15.43;;
39140;SDS011;24875;48.436;10.298;2024-01-11T10:07:52;53.27;;;16.10;;
39140;SDS011;24875;48.436;10.298;2024-01-11T10:10:18;43.83;;;15.20;;
39140;SDS011;24875;48.436;10.298;2024-01-11T10:12:45;48.50;;;14.70;;
39140;SDS011;24875;48.436;10.298;2024-01-11T10:15:13;40.53;;;14.53;;
39140;SDS011;24875;48.436;10.298;2024-01-11T10:17:40;43.40;;;14.37;;
39140;SDS011;24875;48.436;10.298;2024-01-11T10:20:09;43.57;;;14.93;;
39140;SDS011;24875;48.436;10.298;2024-01-11T10:22:38;35.13;;;14.03;;
39140;SDS011;24875;48.436;10.298;2024-01-11T10:25:10;48.30;;;14.97;;
39140;SDS011;24875;48.436;10.298;2024-01-11T10:27:39;38.50;;;13.60;;
39140;SDS011;24875;48.436;10.298;2024-01-11T10:30:08;40.53;;;14.33;;
39140;SDS011;24875;48.436;10.298;2024-01-11T10:32:35;41.53;;;13.80;;
39140;SDS011;24875;48.436;10.298;2024-01-11T10:35:02;42.37;;;14.53;;
39140;SDS011;24875;48.436;10.298;2024-01-11T10:37:30;39.73;;;13.80;;
39140;SDS011;24875;48.436;10.298;2024-01-11T10:39:59;49.93;;;16.20;;
39140;SDS011;24875;48.436;10.298;2024-01-11T10:42:30;53.77;;;16.83;;
39140;SDS011;24875;48.436;10.298;2024-01-11T10:44:58;38.93;;;12.80;;
39140;SDS011;24875;48.436;10.298;2024-01-11T10:47:29;41.67;;;15.70;;
39140;SDS011;24875;48.436;10.298;2024-01-11T10:49:56;40.70;;;15.77;;
39140;SDS011;24875;48.436;10.298;2024-01-11T10:52:27;37.43;;;13.87;;
39140;SDS011;24875;48.436;10.298;2024-01-11T10:55:02;47.77;;;15.83;;
39140;SDS011;24875;48.436;10.298;2024-01-11T10:57:31;44.97;;;14.90;;
39140;SDS011;24875;48.436;10.298;2024-01-11T10:59:59;41.10;;;14.00;;
39140;SDS011;24875;48.436;10.298;2024-01-11T11:02:28;43.57;;;14.97;;
39140;SDS011;24875;48.436;10.298;2024-01-11T11:04:55;45.83;;;14.10;;
39140;SDS011;24875;48.436;10.298;2024-01-11T11:07:23;43.40;;;15.03;;
39140;SDS011;24875;48.436;10.298;2024-01-11T11:09:50;42.30;;;14.93;;
39140;SDS011;24875;48.436;10.298;2024-01-11T11:12:18;46.60;;;15.93;;
39140;SDS011;24875;48.436;10.298;2024-01-11T11:14:48;42.63;;;16.83;;
39140;SDS011;24875;48.436;10.298;2024-01-11T11:17:16;46.60;;;14.57;;
39140;SDS011;24875;48.436;10.298;2024-01-11T11:19:42;41.37;;;14.60;;
39140;SDS011;24875;48.436;10.298;2024-01-11T11:22:09;45.93;;;14.73;;
39140;SDS011;24875;48.436;10.298;2024-01-11T11:24:40;48.57;;;14.60;;
39140;SDS011;24875;48.436;10.298;2024-01-11T11:27:07;42.97;;;15.50;;
39140;SDS011;24875;48.436;10.298;2024-01-11T11:29:33;48.23;;;16.00;;
39140;SDS011;24875;48.436;10.298;2024-01-11T11:32:01;50.07;;;16.77;;
39140;SDS011;24875;48.436;10.298;2024-01-11T11:34:41;45.60;;;15.83;;
39140;SDS011;24875;48.436;10.298;2024-01-11T11:37:09;41.03;;;13.47;;
39140;SDS011;24875;48.436;10.298;2024-01-11T11:39:36;43.17;;;15.23;;
39140;SDS011;24875;48.436;10.298;2024-01-11T11:42:03;40.07;;;15.70;;
39140;SDS011;24875;48.436;10.298;2024-01-11T11:44:30;40.10;;;14.63;;
39140;SDS011;24875;48.436;10.298;2024-01-11T11:47:06;38.80;;;15.30;;
39140;SDS011;24875;48.436;10.298;2024-01-11T11:49:57;38.83;;;13.20;;
39140;SDS011;24875;48.436;10.298;2024-01-11T11:52:25;51.77;;;14.90;;
39140;SDS011;24875;48.436;10.298;2024-01-11T11:54:52;49.80;;;14.07;;
39140;SDS011;24875;48.436;10.298;2024-01-11T11:57:19;48.67;;;15.77;;
39140;SDS011;24875;48.436;10.298;2024-01-11T11:59:48;52.60;;;17.73;;
39140;SDS011;24875;48.436;10.298;2024-01-11T12:02:16;43.83;;;15.80;;
39140;SDS011;24875;48.436;10.298;2024-01-11T12:04:46;37.03;;;12.27;;
39140;SDS011;24875;48.436;10.298;2024-01-11T12:07:13;57.87;;;16.40;;
39140;SDS011;24875;48.436;10.298;2024-01-11T12:09:40;51.87;;;16.70;;
39140;SDS011;24875;48.436;10.298;2024-01-11T12:12:07;43.40;;;15.50;;
39140;SDS011;24875;48.436;10.298;2024-01-11T12:14:34;49.83;;;14.50;;
39140;SDS011;24875;48.436;10.298;2024-01-11T12:17:01;34.40;;;14.67;;
39140;SDS011;24875;48.436;10.298;2024-01-11T12:19:29;46.70;;;15.53;;
39140;SDS011;24875;48.436;10.298;2024-01-11T12:21:55;48.80;;;16.57;;
39140;SDS011;24875;48.436;10.298;2024-01-11T12:24:22;47.97;;;15.87;;
39140;SDS011;24875;48.436;10.298;2024-01-11T12:26:49;42.47;;;14.17;;
39140;SDS011;24875;48.436;10.298;2024-01-11T12:29:17;59.97;;;17.97;;
39140;SDS011;24875;48.436;10.298;2024-01-11T12:31:44;39.13;;;13.47;;
39140;SDS011;24875;48.436;10.298;2024-01-11T12:34:11;55.47;;;15.77;;
39140;SDS011;24875;48.436;10.298;2024-01-11T12:36:39;41.13;;;15.17;;
39140;SDS011;24875;48.436;10.298;2024-01-11T12:39:06;49.97;;;15.80;;
39140;SDS011;24875;48.436;10.298;2024-01-11T12:41:34;49.90;;;17.17;;
39140;SDS011;24875;48.436;10.298;2024-01-11T12:44:02;50.90;;;16.00;;
39140;SDS011;24875;48.436;10.298;2024-01-11T12:46:29;57.07;;;15.17;;
39140;SDS011;24875;48.436;10.298;2024-01-11T12:48:55;54.17;;;17.93;;
39140;SDS011;24875;48.436;10.298;2024-01-11T12:51:22;47.73;;;18.03;;
39140;SDS011;24875;48.436;10.298;2024-01-11T12:53:51;47.53;;;16.27;;
39140;SDS011;24875;48.436;10.298;2024-01-11T12:56:18;38.13;;;14.57;;
39140;SDS011;24875;48.436;10.298;2024-01-11T12:58:46;42.47;;;15.13;;
39140;SDS011;24875;48.436;10.298;2024-01-11T13:01:13;42.57;;;14.97;;
39140;SDS011;24875;48.436;10.298;2024-01-11T13:03:43;46.63;;;15.50;;
39140;SDS011;24875;48.436;10.298;2024-01-11T13:06:10;48.87;;;16.27;;
39140;SDS011;24875;48.436;10.298;2024-01-11T13:08:38;43.77;;;15.60;;
39140;SDS011;24875;48.436;10.298;2024-01-11T13:11:07;45.30;;;15.53;;
39140;SDS011;24875;48.436;10.298;2024-01-11T13:13:36;44.83;;;15.10;;
39140;SDS011;24875;48.436;10.298;2024-01-11T13:16:02;52.13;;;16.90;;
39140;SDS011;24875;48.436;10.298;2024-01-11T13:18:31;42.73;;;15.37;;
39140;SDS011;24875;48.436;10.298;2024-01-11T13:20:57;38.33;;;15.03;;
39140;SDS011;24875;48.436;10.298;2024-01-11T13:23:24;48.47;;;15.70;;
39140;SDS011;24875;48.436;10.298;2024-01-11T13:25:51;38.67;;;13.80;;
39140;SDS011;24875;48.436;10.298;2024-01-11T13:28:19;40.80;;;14.97;;
39140;SDS011;24875;48.436;10.298;2024-01-11T13:30:46;49.20;;;15.47;;
39140;SDS011;24875;48.436;10.298;2024-01-11T13:33:14;32.87;;;12.73;;
39140;SDS011;24875;48.436;10.298;2024-01-11T13:35:42;40.93;;;14.83;;
39140;SDS011;24875;48.436;10.298;2024-01-11T13:38:09;48.80;;;15.50;;
39140;SDS011;24875;48.436;10.298;2024-01-11T13:40:35;49.57;;;15.73;;
39140;SDS011;24875;48.436;10.298;2024-01-11T13:43:03;56.63;;;17.43;;
39140;SDS011;24875;48.436;10.298;2024-01-11T13:45:31;40.70;;;16.83;;
39140;SDS011;24875;48.436;10.298;2024-01-11T13:47:58;42.47;;;15.50;;
39140;SDS011;24875;48.436;10.298;2024-01-11T13:50:25;45.23;;;14.13;;
39140;SDS011;24875;48.436;10.298;2024-01-11T13:52:52;41.97;;;14.67;;
39140;SDS011;24875;48.436;10.298;2024-01-11T13:55:19;36.53;;;13.87;;
39140;SDS011;24875;48.436;10.298;2024-01-11T13:57:46;36.10;;;13.63;;
39140;SDS011;24875;48.436;10.298;2024-01-11T14:00:14;41.07;;;14.90;;
39140;SDS011;24875;48.436;10.298;2024-01-11T14:02:44;51.93;;;15.43;;
39140;SDS011;24875;48.436;10.298;2024-01-11T14:05:11;42.13;;;14.23;;
39140;SDS011;24875;48.436;10.298;2024-01-11T14:07:40;45.10;;;14.43;;
39140;SDS011;24875;48.436;10.298;2024-01-11T14:10:07;43.97;;;14.43;;